createdAt,value
2023-02-15T00:00:03.476Z,68.17
2023-02-15T00:01:09.069Z,68.67
2023-02-15T00:02:12.430Z,68.22
2023-02-15T00:03:17.892Z,68.23
2023-02-15T00:04:22.719Z,67.30
2023-02-15T00:05:26.014Z,66.82
2023-02-15T00:06:29.311Z,67.15
2023-02-15T00:07:35.553Z,66.73
2023-02-15T00:08:40.648Z,66.72
2023-02-15T00:09:44.108Z,66.43
2023-02-15T00:10:50.871Z,66.59
2023-02-15T00:11:54.898Z,66.31
2023-02-15T00:12:58.095Z,66.66
2023-02-15T00:14:01.885Z,66.82
2023-02-15T00:15:06.238Z,67.06
2023-02-15T00:16:11.329Z,66.90
2023-02-15T00:17:14.659Z,66.90
2023-02-15T00:18:17.882Z,67.01
2023-02-15T00:19:21.939Z,67.12
2023-02-15T00:20:25.527Z,67.21
2023-02-15T00:21:33.533Z,67.09
2023-02-15T00:22:36.729Z,67.27
2023-02-15T00:23:41.162Z,67.87
2023-02-15T00:24:44.144Z,67.87
2023-02-15T00:25:47.428Z,67.30
2023-02-15T00:26:52.308Z,67.36
2023-02-15T00:27:54.549Z,67.71
2023-02-15T00:29:01.332Z,68.09
2023-02-15T00:30:05.147Z,68.10
2023-02-15T00:31:09.213Z,68.62
2023-02-15T00:32:12.967Z,68.85
2023-02-15T00:33:17.722Z,68.75
2023-02-15T00:34:23.136Z,69.40
2023-02-15T00:35:27.472Z,69.12
2023-02-15T00:36:31.774Z,69.17
2023-02-15T00:37:35.082Z,68.94
2023-02-15T00:38:41.410Z,69.03
2023-02-15T00:39:44.806Z,69.79
2023-02-15T00:40:49.461Z,69.72
2023-02-15T00:41:52.967Z,69.33
2023-02-15T00:42:55.521Z,69.62
2023-02-15T00:43:59.035Z,70.16
2023-02-15T00:45:07.985Z,70.53
2023-02-15T00:46:12.495Z,70.81
2023-02-15T00:47:17.695Z,70.14
2023-02-15T00:48:24.204Z,70.62
2023-02-15T00:49:28.456Z,70.46
2023-02-15T00:50:34.775Z,70.15
2023-02-15T00:51:37.983Z,70.29
2023-02-15T00:52:41.383Z,70.62
2023-02-15T00:53:47.044Z,70.72
2023-02-15T00:54:49.962Z,70.92
2023-02-15T00:55:53.186Z,70.95
2023-02-15T00:56:56.658Z,70.26
2023-02-15T00:58:00.162Z,70.21
2023-02-15T00:59:05.193Z,70.08
2023-02-15T01:00:11.778Z,69.94
2023-02-15T01:02:27.450Z,69.94
2023-02-15T01:03:31.085Z,70.33
2023-02-15T01:04:35.930Z,70.37
2023-02-15T01:05:39.156Z,70.72
2023-02-15T01:06:41.354Z,71.08
2023-02-15T01:07:45.384Z,70.60
2023-02-15T01:08:48.899Z,71.05
2023-02-15T01:09:52.300Z,71.16
2023-02-15T01:10:57.698Z,70.33
2023-02-15T01:12:02.836Z,69.94
2023-02-15T01:13:06.076Z,69.77
2023-02-15T01:14:10.399Z,70.09
2023-02-15T01:15:14.304Z,70.05
2023-02-15T01:16:18.897Z,69.52
2023-02-15T01:17:21.850Z,69.69
2023-02-15T01:18:25.248Z,69.46
2023-02-15T01:19:30.425Z,69.77
2023-02-15T01:20:38.872Z,69.77
2023-02-15T01:21:43.278Z,69.22
2023-02-15T01:22:46.789Z,68.75
2023-02-15T01:23:50.626Z,68.13
2023-02-15T01:24:53.386Z,68.21
2023-02-15T01:25:56.888Z,68.14
2023-02-15T01:27:03.266Z,67.88
2023-02-15T01:28:05.769Z,67.85
2023-02-15T01:29:09.277Z,67.54
2023-02-15T01:30:13.564Z,67.10
2023-02-15T01:31:20.239Z,67.35
2023-02-15T01:32:25.009Z,68.75
2023-02-15T01:33:27.479Z,67.95
2023-02-15T01:34:31.297Z,67.35
2023-02-15T01:35:35.242Z,68.26
2023-02-15T01:36:37.577Z,67.71
2023-02-15T01:37:40.868Z,67.53
2023-02-15T01:38:46.375Z,66.86
2023-02-15T01:39:49.868Z,66.43
2023-02-15T01:40:57.505Z,65.96
2023-02-15T01:42:00.951Z,66.12
2023-02-15T01:43:04.068Z,66.42
2023-02-15T01:44:28.252Z,66.79
2023-02-15T01:45:33.087Z,66.50
2023-02-15T01:46:37.706Z,66.04
2023-02-15T01:47:43.021Z,66.50
2023-02-15T01:48:52.413Z,66.51
2023-02-15T01:50:13.635Z,66.22
2023-02-15T01:51:18.293Z,66.35
2023-02-15T01:52:22.004Z,66.08
2023-02-15T01:53:31.712Z,65.58
2023-02-15T01:54:37.993Z,65.33
2023-02-15T01:55:42.819Z,65.14
2023-02-15T01:56:46.266Z,64.83
2023-02-15T01:57:50.075Z,64.01
2023-02-15T01:58:56.242Z,63.65
2023-02-15T02:00:02.407Z,62.26
2023-02-15T02:01:10.553Z,62.15
2023-02-15T02:02:15.881Z,62.33
2023-02-15T02:03:22.209Z,62.15
2023-02-15T02:04:37.949Z,62.36
2023-02-15T02:05:41.764Z,61.77
2023-02-15T02:06:47.776Z,62.07
2023-02-15T02:07:56.039Z,61.86
2023-02-15T02:08:59.644Z,61.86
2023-02-15T02:10:04.533Z,62.11
2023-02-15T02:11:14.508Z,62.53
2023-02-15T02:12:18.931Z,62.32
2023-02-15T02:13:25.146Z,62.81
2023-02-15T02:14:28.912Z,62.72
2023-02-15T02:15:42.577Z,62.57
2023-02-15T02:17:06.845Z,62.65
2023-02-15T02:18:12.437Z,63.17
2023-02-15T02:19:30.926Z,64.18
2023-02-15T02:20:44.830Z,64.60
2023-02-15T02:21:53.482Z,65.65
2023-02-15T02:23:10.207Z,65.96
2023-02-15T02:24:31.904Z,66.28
2023-02-15T02:25:54.489Z,66.31
2023-02-15T02:27:01.264Z,66.81
2023-02-15T02:28:09.118Z,66.91
2023-02-15T02:29:30.212Z,66.69
2023-02-15T02:30:42.372Z,66.35
2023-02-15T02:31:48.652Z,66.42
2023-02-15T02:33:10.585Z,66.71
2023-02-15T02:34:18.270Z,66.49
2023-02-15T02:35:26.787Z,66.29
2023-02-15T02:36:34.066Z,66.21
2023-02-15T02:37:45.192Z,66.10
2023-02-15T02:38:52.342Z,66.29
2023-02-15T02:39:57.533Z,66.29
2023-02-15T02:41:02.914Z,66.65
2023-02-15T02:42:13.093Z,66.93
2023-02-15T02:43:33.738Z,66.93
2023-02-15T02:44:37.963Z,66.33
2023-02-15T02:45:49.708Z,66.09
2023-02-15T02:46:55.846Z,66.31
2023-02-15T02:48:02.579Z,65.98
2023-02-15T02:49:05.891Z,65.74
2023-02-15T02:50:10.120Z,65.63
2023-02-15T02:51:14.428Z,65.68
2023-02-15T02:52:40.013Z,65.59
2023-02-15T02:53:43.406Z,66.37
2023-02-15T02:54:51.535Z,65.17
2023-02-15T02:55:56.337Z,65.61
2023-02-15T02:57:03.770Z,65.89
2023-02-15T02:58:08.288Z,65.46
2023-02-15T02:59:20.363Z,65.25
2023-02-15T03:00:25.112Z,65.40
2023-02-15T03:01:30.353Z,65.33
2023-02-15T03:02:37.056Z,65.40
2023-02-15T03:03:45.358Z,65.65
2023-02-15T03:04:50.416Z,65.40
2023-02-15T03:05:55.485Z,65.52
2023-02-15T03:07:03.581Z,65.96
2023-02-15T03:08:09.989Z,65.89
2023-02-15T03:09:17.287Z,65.90
2023-02-15T03:10:23.400Z,66.06
2023-02-15T03:11:27.737Z,65.95
2023-02-15T03:12:36.779Z,65.84
2023-02-15T03:13:41.959Z,65.57
2023-02-15T03:14:46.742Z,65.73
2023-02-15T03:16:09.098Z,65.98
2023-02-15T03:17:14.934Z,66.48
2023-02-15T03:18:19.828Z,66.53
2023-02-15T03:19:28.109Z,66.38
2023-02-15T03:20:37.669Z,66.05
2023-02-15T03:21:42.621Z,65.93
2023-02-15T03:22:49.291Z,66.15
2023-02-15T03:23:57.944Z,66.04
2023-02-15T03:25:05.103Z,65.65
2023-02-15T03:26:09.928Z,65.32
2023-02-15T03:27:17.385Z,66.22
2023-02-15T03:28:22.563Z,65.99
2023-02-15T03:29:28.585Z,65.25
2023-02-15T03:30:35.323Z,65.12
2023-02-15T03:31:40.998Z,65.21
2023-02-15T03:32:45.272Z,65.38
2023-02-15T03:33:51.370Z,65.07
2023-02-15T03:34:54.664Z,65.19
2023-02-15T03:36:01.998Z,65.99
2023-02-15T03:37:24.203Z,65.68
2023-02-15T03:38:28.367Z,65.60
2023-02-15T03:39:49.651Z,64.70
2023-02-15T03:41:13.305Z,64.02
2023-02-15T03:42:18.794Z,64.17
2023-02-15T03:43:39.950Z,64.03
2023-02-15T03:44:48.840Z,63.65
2023-02-15T03:45:56.882Z,63.19
2023-02-15T03:47:02.996Z,63.47
2023-02-15T03:48:10.035Z,63.06
2023-02-15T03:49:21.710Z,63.15
2023-02-15T03:50:45.566Z,63.59
2023-02-15T03:51:53.155Z,63.75
2023-02-15T03:52:57.706Z,64.28
2023-02-15T03:54:11.715Z,64.32
2023-02-15T03:55:14.993Z,64.44
2023-02-15T03:56:18.463Z,64.33
2023-02-15T03:57:42.958Z,64.49
2023-02-15T03:59:04.634Z,65.04
2023-02-15T04:00:29.133Z,64.77
2023-02-15T04:01:53.016Z,65.08
2023-02-15T04:03:10.229Z,64.32
2023-02-15T04:04:15.786Z,64.36
2023-02-15T04:05:18.773Z,64.16
2023-02-15T04:06:22.173Z,64.02
2023-02-15T04:07:25.345Z,64.33
2023-02-15T04:08:31.677Z,64.23
2023-02-15T04:09:54.624Z,64.32
2023-02-15T04:10:57.950Z,64.32
2023-02-15T04:12:01.944Z,64.08
2023-02-15T04:13:05.450Z,64.59
2023-02-15T04:14:28.579Z,64.67
2023-02-15T04:15:50.330Z,63.89
2023-02-15T04:16:53.841Z,63.42
2023-02-15T04:17:59.565Z,63.24
2023-02-15T04:19:20.208Z,62.91
2023-02-15T04:20:42.614Z,63.56
2023-02-15T04:22:03.241Z,63.17
2023-02-15T04:23:25.453Z,62.41
2023-02-15T04:24:47.657Z,62.30
2023-02-15T04:25:51.165Z,61.80
2023-02-15T04:26:54.853Z,61.77
2023-02-15T04:27:57.334Z,61.79
2023-02-15T04:29:01.255Z,61.79
2023-02-15T04:30:07.464Z,61.35
2023-02-15T04:31:13.026Z,61.26
2023-02-15T04:32:18.700Z,62.08
2023-02-15T04:33:21.959Z,62.05
2023-02-15T04:34:25.245Z,62.45
2023-02-15T04:35:28.673Z,62.45
2023-02-15T04:36:32.162Z,62.32
2023-02-15T04:37:35.612Z,62.73
2023-02-15T04:38:38.230Z,62.45
2023-02-15T04:39:41.736Z,63.11
2023-02-15T04:40:44.957Z,62.93
2023-02-15T04:41:49.578Z,62.95
2023-02-15T04:42:53.503Z,62.79
2023-02-15T04:43:56.684Z,62.97
2023-02-15T04:44:59.153Z,63.00
2023-02-15T04:46:02.932Z,62.99
2023-02-15T04:47:09.079Z,62.91
2023-02-15T04:48:16.266Z,62.98
2023-02-15T04:49:20.410Z,62.80
2023-02-15T04:50:24.570Z,62.92
2023-02-15T04:51:28.018Z,62.98
2023-02-15T04:52:30.798Z,63.12
2023-02-15T04:53:34.290Z,62.94
2023-02-15T04:54:37.802Z,63.36
2023-02-15T04:55:41.517Z,63.79
2023-02-15T04:56:44.896Z,63.66
2023-02-15T04:57:49.082Z,63.69
2023-02-15T04:58:52.769Z,63.50
2023-02-15T04:59:56.146Z,63.96
2023-02-15T05:01:00.921Z,63.62
2023-02-15T05:02:05.253Z,63.64
2023-02-15T05:03:08.709Z,62.90
2023-02-15T05:04:11.455Z,62.38
2023-02-15T05:05:16.005Z,62.42
2023-02-15T05:06:19.701Z,62.30
2023-02-15T05:07:23.624Z,62.10
2023-02-15T05:08:27.232Z,62.72
2023-02-15T05:09:30.494Z,61.44
2023-02-15T05:10:32.910Z,61.06
2023-02-15T05:11:36.702Z,61.67
2023-02-15T05:12:38.954Z,61.81
2023-02-15T05:13:42.882Z,61.94
2023-02-15T05:14:46.590Z,62.03
2023-02-15T05:15:51.511Z,61.54
2023-02-15T05:16:55.078Z,61.22
2023-02-15T05:17:59.393Z,62.04
2023-02-15T05:19:02.613Z,62.34
2023-02-15T05:20:06.719Z,62.47
2023-02-15T05:21:09.176Z,62.04
2023-02-15T05:22:13.516Z,61.73
2023-02-15T05:23:17.684Z,62.27
2023-02-15T05:24:38.387Z,62.49
2023-02-15T05:26:00.907Z,62.58
2023-02-15T05:27:23.111Z,62.49
2023-02-15T05:28:27.358Z,63.15
2023-02-15T05:29:30.961Z,63.74
2023-02-15T05:30:34.506Z,63.22
2023-02-15T05:31:37.510Z,63.53
2023-02-15T05:32:41.276Z,63.79
2023-02-15T05:33:45.505Z,64.22
2023-02-15T05:34:49.552Z,65.15
2023-02-15T05:35:51.888Z,64.69
2023-02-15T05:36:55.290Z,64.84
2023-02-15T05:38:00.455Z,64.80
2023-02-15T05:39:05.045Z,64.42
2023-02-15T05:40:08.864Z,63.87
2023-02-15T05:41:12.339Z,63.40
2023-02-15T05:42:17.730Z,63.46
2023-02-15T05:43:20.283Z,64.05
2023-02-15T05:44:24.552Z,64.19
2023-02-15T05:45:28.136Z,64.19
2023-02-15T05:46:31.886Z,63.73
2023-02-15T05:47:37.574Z,63.92
2023-02-15T05:48:41.261Z,62.99
2023-02-15T05:49:45.434Z,63.00
2023-02-15T05:50:51.929Z,62.82
2023-02-15T05:51:55.328Z,63.31
2023-02-15T05:52:58.475Z,62.69
2023-02-15T05:54:00.884Z,62.48
2023-02-15T05:55:06.626Z,61.88
2023-02-15T05:56:10.849Z,62.28
2023-02-15T05:57:13.378Z,62.28
2023-02-15T05:58:16.884Z,62.07
2023-02-15T05:59:19.237Z,62.46
2023-02-15T06:00:22.638Z,62.58
2023-02-15T06:01:26.352Z,62.69
2023-02-15T06:02:28.972Z,62.79
2023-02-15T06:03:32.412Z,62.79
2023-02-15T06:04:36.064Z,62.19
2023-02-15T06:05:39.121Z,62.65
2023-02-15T06:06:42.662Z,62.93
2023-02-15T06:07:46.850Z,62.95
2023-02-15T06:08:51.859Z,62.81
2023-02-15T06:09:55.361Z,63.16
2023-02-15T06:10:58.735Z,62.69
2023-02-15T06:12:01.750Z,63.61
2023-02-15T06:13:04.072Z,63.51
2023-02-15T06:14:07.463Z,63.99
2023-02-15T06:15:10.779Z,63.57
2023-02-15T06:16:14.604Z,63.38
2023-02-15T06:17:17.685Z,63.26
2023-02-15T06:18:21.166Z,62.94
2023-02-15T06:19:24.364Z,63.03
2023-02-15T06:20:27.154Z,63.03
2023-02-15T06:21:31.282Z,62.58
2023-02-15T06:22:33.944Z,61.79
2023-02-15T06:23:37.763Z,62.06
2023-02-15T06:24:41.689Z,62.06
2023-02-15T06:25:46.126Z,61.70
2023-02-15T06:26:49.650Z,61.19
2023-02-15T06:27:52.960Z,60.48
2023-02-15T06:28:57.471Z,60.84
2023-02-15T06:30:02.176Z,61.68
2023-02-15T06:31:06.032Z,61.24
2023-02-15T06:32:10.183Z,60.57
2023-02-15T06:33:13.591Z,60.12
2023-02-15T06:34:16.989Z,59.92
2023-02-15T06:35:20.917Z,59.22
2023-02-15T06:36:24.095Z,58.43
2023-02-15T06:37:27.421Z,58.93
2023-02-15T06:38:31.428Z,58.31
2023-02-15T06:39:35.132Z,58.00
2023-02-15T06:40:38.649Z,57.77
2023-02-15T06:41:42.691Z,56.99
2023-02-15T06:42:46.377Z,57.03
2023-02-15T06:43:50.074Z,57.04
2023-02-15T06:44:53.503Z,57.73
2023-02-15T06:45:56.416Z,58.44
2023-02-15T06:47:01.669Z,57.47
2023-02-15T06:48:08.290Z,56.20
2023-02-15T06:49:12.110Z,54.74
2023-02-15T06:50:15.937Z,53.63
2023-02-15T06:51:21.322Z,53.02
2023-02-15T06:52:24.929Z,53.31
2023-02-15T06:53:28.438Z,53.02
2023-02-15T06:54:34.615Z,52.07
2023-02-15T06:55:37.628Z,51.01
2023-02-15T06:56:41.143Z,50.89
2023-02-15T06:57:44.456Z,50.73
2023-02-15T06:58:49.924Z,52.52
2023-02-15T06:59:55.303Z,52.69
2023-02-15T07:00:58.719Z,52.50
2023-02-15T07:02:01.168Z,51.98
2023-02-15T07:03:04.575Z,50.64
2023-02-15T07:04:07.687Z,50.92
2023-02-15T07:05:10.687Z,51.11
2023-02-15T07:06:13.206Z,49.93
2023-02-15T07:07:19.209Z,49.61
2023-02-15T07:08:22.514Z,48.60
2023-02-15T07:09:25.947Z,47.80
2023-02-15T07:10:32.347Z,46.62
2023-02-15T07:11:55.694Z,46.50
2023-02-15T07:12:58.847Z,45.96
2023-02-15T07:14:02.709Z,46.75
2023-02-15T07:15:08.114Z,48.77
2023-02-15T07:16:11.748Z,48.61
2023-02-15T07:17:32.842Z,48.04
2023-02-15T07:18:21.280Z,47.91
2023-02-15T07:19:24.614Z,49.55
2023-02-15T07:20:30.200Z,49.41
2023-02-15T07:21:33.577Z,46.41
2023-02-15T07:22:37.951Z,43.78
2023-02-15T07:23:41.549Z,42.96
2023-02-15T07:24:44.795Z,43.54
2023-02-15T07:25:48.461Z,43.65
2023-02-15T07:26:50.645Z,44.38
2023-02-15T07:27:59.861Z,46.37
2023-02-15T07:29:03.678Z,43.15
2023-02-15T07:30:09.218Z,38.06
2023-02-15T07:31:17.617Z,37.18
2023-02-15T07:32:23.946Z,37.84
2023-02-15T07:33:30.020Z,35.34
2023-02-15T07:34:33.422Z,34.09
2023-02-15T07:35:37.468Z,31.80
2023-02-15T07:36:41.379Z,32.95
2023-02-15T07:37:44.700Z,33.21
2023-02-15T07:38:48.466Z,32.59
2023-02-15T07:39:52.305Z,30.97
2023-02-15T07:41:02.494Z,33.85
2023-02-15T07:42:05.599Z,34.56
2023-02-15T07:43:10.315Z,32.56
2023-02-15T07:44:16.054Z,32.49
2023-02-15T07:45:19.550Z,34.50
2023-02-15T07:46:23.218Z,35.16
2023-02-15T07:47:28.005Z,35.38
2023-02-15T07:48:32.383Z,37.29
2023-02-15T07:49:36.791Z,33.89
2023-02-15T07:50:40.119Z,32.10
2023-02-15T07:51:42.769Z,30.32
2023-02-15T07:52:47.221Z,29.28
2023-02-15T07:53:51.336Z,29.61
2023-02-15T07:54:56.225Z,28.09
2023-02-15T07:56:00.069Z,26.84
2023-02-15T07:57:03.658Z,26.54
2023-02-15T07:58:07.038Z,27.29
2023-02-15T07:59:10.775Z,27.73
2023-02-15T08:00:15.104Z,27.30
2023-02-15T08:01:20.264Z,26.54
2023-02-15T08:02:23.772Z,27.13
2023-02-15T08:03:31.383Z,26.50
2023-02-15T08:04:34.854Z,27.03
2023-02-15T08:05:40.552Z,28.87
2023-02-15T08:06:45.832Z,27.89
2023-02-15T08:07:50.485Z,27.96
2023-02-15T08:08:53.669Z,27.56
2023-02-15T08:09:57.826Z,27.42
2023-02-15T08:11:26.811Z,26.82
2023-02-15T08:12:30.627Z,27.33
2023-02-15T08:13:33.701Z,27.72
2023-02-15T08:14:37.339Z,27.81
2023-02-15T08:15:41.961Z,27.76
2023-02-15T08:16:52.207Z,28.17
2023-02-15T08:17:55.044Z,27.64
2023-02-15T08:19:01.984Z,26.51
2023-02-15T08:20:09.803Z,29.15
2023-02-15T08:21:13.184Z,30.59
2023-02-15T08:22:16.365Z,29.76
2023-02-15T08:23:19.793Z,29.14
2023-02-15T08:24:23.700Z,29.23
2023-02-15T08:25:29.297Z,29.04
2023-02-15T08:26:33.426Z,27.75
2023-02-15T08:27:37.870Z,26.70
2023-02-15T08:28:43.189Z,26.92
2023-02-15T08:29:46.654Z,26.94
2023-02-15T08:30:50.729Z,27.18
2023-02-15T08:31:55.308Z,29.65
2023-02-15T08:33:00.540Z,29.61
2023-02-15T08:34:04.237Z,28.47
2023-02-15T08:35:08.585Z,28.05
2023-02-15T08:36:13.641Z,27.58
2023-02-15T08:37:17.049Z,27.24
2023-02-15T08:38:20.439Z,26.41
2023-02-15T08:39:23.848Z,27.08
2023-02-15T08:40:27.126Z,26.89
2023-02-15T08:41:37.160Z,26.44
2023-02-15T08:42:42.396Z,27.02
2023-02-15T08:43:51.026Z,26.54
2023-02-15T08:44:54.839Z,26.76
2023-02-15T08:45:57.950Z,25.99
2023-02-15T08:47:02.260Z,26.28
2023-02-15T08:48:08.266Z,25.67
2023-02-15T08:49:13.559Z,25.53
2023-02-15T08:50:17.167Z,24.95
2023-02-15T08:51:22.750Z,25.55
2023-02-15T08:52:25.938Z,26.42
2023-02-15T08:53:29.124Z,26.31
2023-02-15T08:54:32.570Z,29.76
2023-02-15T08:55:38.232Z,30.28
2023-02-15T08:56:42.263Z,30.10
2023-02-15T08:57:46.286Z,33.70
2023-02-15T08:58:52.340Z,33.52
2023-02-15T08:59:55.853Z,31.30
2023-02-15T09:01:02.517Z,30.84
2023-02-15T09:02:06.326Z,29.93
2023-02-15T09:03:09.691Z,29.68
2023-02-15T09:04:14.638Z,30.51
2023-02-15T09:05:18.143Z,31.64
2023-02-15T09:06:22.274Z,34.97
2023-02-15T09:07:30.067Z,36.87
2023-02-15T09:08:32.616Z,36.78
2023-02-15T09:09:37.489Z,37.46
2023-02-15T09:10:39.743Z,40.15
2023-02-15T09:11:45.126Z,39.72
2023-02-15T09:12:48.525Z,40.82
2023-02-15T09:13:55.784Z,41.60
2023-02-15T09:14:59.300Z,41.95
2023-02-15T09:16:07.213Z,43.57
2023-02-15T09:17:12.391Z,44.02
2023-02-15T09:18:19.766Z,41.10
2023-02-15T09:19:23.773Z,41.52
2023-02-15T09:20:27.475Z,42.70
2023-02-15T09:21:29.948Z,43.89
2023-02-15T09:22:33.245Z,44.87
2023-02-15T09:23:36.113Z,45.50
2023-02-15T09:24:42.794Z,46.76
2023-02-15T09:25:46.344Z,47.27
2023-02-15T09:26:49.412Z,47.25
2023-02-15T09:27:54.650Z,48.05
2023-02-15T09:29:07.721Z,47.27
2023-02-15T09:30:16.318Z,46.18
2023-02-15T09:31:22.941Z,45.04
2023-02-15T09:32:26.422Z,45.45
2023-02-15T09:33:32.843Z,44.78
2023-02-15T09:34:36.169Z,44.97
2023-02-15T09:35:39.832Z,46.02
2023-02-15T09:36:43.014Z,45.95
2023-02-15T09:37:45.696Z,46.96
2023-02-15T09:38:51.049Z,47.52
2023-02-15T09:39:55.002Z,48.43
2023-02-15T09:41:12.295Z,48.24
2023-02-15T09:42:34.075Z,47.15
2023-02-15T09:43:42.518Z,46.85
2023-02-15T09:44:50.456Z,46.29
2023-02-15T09:45:57.273Z,47.76
2023-02-15T09:47:08.361Z,46.64
2023-02-15T09:48:30.145Z,46.48
2023-02-15T09:49:52.245Z,47.43
2023-02-15T09:50:59.729Z,46.76
2023-02-15T09:52:20.027Z,46.33
2023-02-15T09:53:40.567Z,45.78
2023-02-15T09:54:57.228Z,45.90
2023-02-15T09:56:14.813Z,46.70
2023-02-15T09:57:20.223Z,47.10
2023-02-15T09:58:34.905Z,47.32
2023-02-15T09:59:40.291Z,46.93
2023-02-15T10:00:49.917Z,47.88
2023-02-15T10:02:06.206Z,46.81
2023-02-15T10:03:12.427Z,47.05
2023-02-15T10:04:22.540Z,46.32
2023-02-15T10:05:29.635Z,46.82
2023-02-15T10:06:37.569Z,47.40
2023-02-15T10:07:42.850Z,47.25
2023-02-15T10:08:54.305Z,46.44
2023-02-15T10:10:09.285Z,47.40
2023-02-15T10:11:38.484Z,47.45
2023-02-15T10:12:48.989Z,48.46
2023-02-15T10:14:02.424Z,48.73
2023-02-15T10:15:13.996Z,47.67
2023-02-15T10:16:22.043Z,47.26
2023-02-15T10:17:30.059Z,47.51
2023-02-15T10:18:52.782Z,47.13
2023-02-15T10:20:18.748Z,47.68
2023-02-15T10:21:23.595Z,48.32
2023-02-15T10:22:29.202Z,47.90
2023-02-15T10:23:43.225Z,47.40
2023-02-15T10:24:49.003Z,48.70
2023-02-15T10:26:00.786Z,47.99
2023-02-15T10:27:05.171Z,48.06
2023-02-15T10:28:10.321Z,47.86
2023-02-15T10:29:19.997Z,48.66
2023-02-15T10:30:32.604Z,49.43
2023-02-15T10:31:38.370Z,49.33
2023-02-15T10:32:49.313Z,49.09
2023-02-15T10:33:56.362Z,49.96
2023-02-15T10:35:02.623Z,49.17
2023-02-15T10:36:11.004Z,48.13
2023-02-15T10:37:27.565Z,49.33
2023-02-15T10:38:37.239Z,48.97
2023-02-15T10:39:45.777Z,48.46
2023-02-15T10:41:03.541Z,48.39
2023-02-15T10:42:07.905Z,48.42
2023-02-15T10:43:21.541Z,48.61
2023-02-15T10:44:28.587Z,49.48
2023-02-15T10:45:51.763Z,49.98
2023-02-15T10:47:02.870Z,49.06
2023-02-15T10:48:19.324Z,49.43
2023-02-15T10:49:41.189Z,49.40
2023-02-15T10:50:57.479Z,49.59
2023-02-15T10:52:17.667Z,49.92
2023-02-15T10:53:42.327Z,50.41
2023-02-15T10:54:50.398Z,50.22
2023-02-15T10:55:56.708Z,49.67
2023-02-15T10:57:11.323Z,49.40
2023-02-15T10:58:16.037Z,49.45
2023-02-15T10:59:25.464Z,49.65
2023-02-15T11:00:37.456Z,48.96
2023-02-15T11:01:56.864Z,49.47
2023-02-15T11:03:14.129Z,50.28
2023-02-15T11:04:37.254Z,50.01
2023-02-15T11:05:42.825Z,49.58
2023-02-15T11:06:49.545Z,49.42
2023-02-15T11:07:53.696Z,49.79
2023-02-15T11:09:02.336Z,50.03
2023-02-15T11:10:10.231Z,48.59
2023-02-15T11:11:29.177Z,48.98
2023-02-15T11:12:34.386Z,49.31
2023-02-15T11:13:42.213Z,49.98
2023-02-15T11:14:46.268Z,49.52
2023-02-15T11:15:53.949Z,49.35
2023-02-15T11:17:01.638Z,48.71
2023-02-15T11:18:07.872Z,48.50
2023-02-15T11:19:14.716Z,48.36
2023-02-15T11:20:31.730Z,49.34
2023-02-15T11:21:40.476Z,49.62
2023-02-15T11:22:43.913Z,49.53
2023-02-15T11:23:50.096Z,49.16
2023-02-15T11:24:55.855Z,49.84
2023-02-15T11:26:00.951Z,50.03
2023-02-15T11:27:06.159Z,48.92
2023-02-15T11:28:10.452Z,48.54
2023-02-15T11:29:27.191Z,49.00
2023-02-15T11:30:31.852Z,48.88
2023-02-15T11:31:39.975Z,48.75
2023-02-15T11:32:47.527Z,49.34
2023-02-15T11:33:54.783Z,49.71
2023-02-15T11:35:05.866Z,48.44
2023-02-15T11:36:18.748Z,47.76
2023-02-15T11:37:23.722Z,48.35
2023-02-15T11:38:30.204Z,47.76
2023-02-15T11:39:36.442Z,48.49
2023-02-15T11:40:46.143Z,48.88
2023-02-15T11:41:55.055Z,48.37
2023-02-15T11:42:59.545Z,47.82
2023-02-15T11:44:08.901Z,47.55
2023-02-15T11:45:19.079Z,47.81
2023-02-15T11:46:24.120Z,48.30
2023-02-15T11:47:26.998Z,48.01
2023-02-15T11:48:33.679Z,48.16
2023-02-15T11:49:36.897Z,47.67
2023-02-15T11:50:44.248Z,47.32
2023-02-15T11:51:47.575Z,47.29
2023-02-15T11:52:52.206Z,47.57
2023-02-15T11:53:54.526Z,47.21
2023-02-15T11:54:57.646Z,47.13
2023-02-15T11:56:01.983Z,46.15
2023-02-15T11:57:10.000Z,46.39
2023-02-15T11:58:26.846Z,47.05
2023-02-15T11:59:32.108Z,46.13
2023-02-15T12:00:40.104Z,45.54
2023-02-15T12:01:44.949Z,45.97
2023-02-15T12:02:50.018Z,45.71
2023-02-15T12:03:56.396Z,44.98
2023-02-15T12:05:05.655Z,44.75
2023-02-15T12:06:10.797Z,45.62
2023-02-15T12:07:23.630Z,45.24
2023-02-15T12:08:28.639Z,45.72
2023-02-15T12:09:39.489Z,44.98
2023-02-15T12:10:43.934Z,44.90
2023-02-15T12:11:47.171Z,46.27
2023-02-15T12:12:53.126Z,46.61
2023-02-15T12:13:57.836Z,46.61
2023-02-15T12:15:02.610Z,45.41
2023-02-15T12:16:11.758Z,45.65
2023-02-15T12:17:15.105Z,45.17
2023-02-15T12:18:24.231Z,44.97
2023-02-15T12:19:43.503Z,44.42
2023-02-15T12:20:46.845Z,44.68
2023-02-15T12:21:51.746Z,44.19
2023-02-15T12:22:58.096Z,43.80
2023-02-15T12:24:07.143Z,43.16
2023-02-15T12:25:25.162Z,43.08
2023-02-15T12:26:35.529Z,42.98
2023-02-15T12:27:41.807Z,43.43
2023-02-15T12:28:48.834Z,42.49
2023-02-15T12:29:53.949Z,41.92
2023-02-15T12:30:57.589Z,42.80
2023-02-15T12:32:00.415Z,43.20
2023-02-15T12:33:11.482Z,42.83
2023-02-15T12:34:16.562Z,42.92
2023-02-15T12:35:20.584Z,43.41
2023-02-15T12:36:25.507Z,43.12
2023-02-15T12:37:30.539Z,42.55
2023-02-15T12:38:34.413Z,42.11
2023-02-15T12:39:37.765Z,42.28
2023-02-15T12:40:42.674Z,42.56
2023-02-15T12:41:48.602Z,42.97
2023-02-15T12:42:52.655Z,42.15
2023-02-15T12:44:14.354Z,41.83
2023-02-15T12:45:31.109Z,41.48
2023-02-15T12:46:41.793Z,41.29
2023-02-15T12:47:39.887Z,42.04
2023-02-15T12:48:43.356Z,41.35
2023-02-15T12:49:48.458Z,41.47
2023-02-15T12:50:55.467Z,41.15
2023-02-15T12:52:02.689Z,41.96
2023-02-15T12:53:23.352Z,41.86
2023-02-15T12:54:36.828Z,41.33
2023-02-15T12:55:45.505Z,42.65
2023-02-15T12:56:45.175Z,42.43
2023-02-15T12:57:47.691Z,42.71
2023-02-15T12:58:52.933Z,41.06
2023-02-15T13:00:04.627Z,40.50
2023-02-15T13:01:13.273Z,41.79
2023-02-15T13:02:18.564Z,41.73
2023-02-15T13:03:24.465Z,41.37
2023-02-15T13:04:30.646Z,41.35
2023-02-15T13:05:45.252Z,40.82
2023-02-15T13:06:51.205Z,42.01
2023-02-15T13:08:05.429Z,41.84
2023-02-15T13:09:22.073Z,40.96
2023-02-15T13:10:26.253Z,41.05
2023-02-15T13:11:34.196Z,41.35
2023-02-15T13:12:37.557Z,40.86
2023-02-15T13:13:42.704Z,40.92
2023-02-15T13:14:46.549Z,40.99
2023-02-15T13:15:53.333Z,41.19
2023-02-15T13:16:59.426Z,41.73
2023-02-15T13:18:03.375Z,41.72
2023-02-15T13:19:14.047Z,42.11
2023-02-15T13:20:23.746Z,41.45
2023-02-15T13:21:28.654Z,41.96
2023-02-15T13:22:44.892Z,41.97
2023-02-15T13:23:50.879Z,42.10
2023-02-15T13:25:00.800Z,42.29
2023-02-15T13:26:07.452Z,41.01
2023-02-15T13:27:19.154Z,41.36
2023-02-15T13:28:24.169Z,41.44
2023-02-15T13:29:31.450Z,41.59
2023-02-15T13:30:39.835Z,41.60
2023-02-15T13:31:47.506Z,41.72
2023-02-15T13:32:52.694Z,41.95
2023-02-15T13:33:57.734Z,42.33
2023-02-15T13:35:01.692Z,42.50
2023-02-15T13:36:10.529Z,42.74
2023-02-15T13:37:32.237Z,43.16
2023-02-15T13:38:43.759Z,44.04
2023-02-15T13:39:54.469Z,43.55
2023-02-15T13:41:04.235Z,42.46
2023-02-15T13:42:18.876Z,42.98
2023-02-15T13:43:44.595Z,43.24
2023-02-15T13:45:05.935Z,43.06
2023-02-15T13:46:11.170Z,42.92
2023-02-15T13:47:22.863Z,42.87
2023-02-15T13:48:48.327Z,43.04
2023-02-15T13:50:04.978Z,42.75
2023-02-15T13:51:33.026Z,42.43
2023-02-15T13:52:37.700Z,42.28
2023-02-15T13:53:57.661Z,42.79
2023-02-15T13:55:20.742Z,42.52
2023-02-15T13:56:27.240Z,42.71
2023-02-15T13:57:37.442Z,43.11
2023-02-15T13:58:52.238Z,42.80
2023-02-15T14:00:14.025Z,43.01
2023-02-15T14:01:36.556Z,43.61
2023-02-15T14:02:44.237Z,43.41
2023-02-15T14:05:16.893Z,42.83
2023-02-15T14:06:21.539Z,43.06
2023-02-15T14:07:44.600Z,43.39
2023-02-15T14:08:52.812Z,43.10
2023-02-15T14:09:59.520Z,42.65
2023-02-15T14:11:06.620Z,42.67
2023-02-15T14:12:12.074Z,43.12
2023-02-15T14:13:17.566Z,42.99
2023-02-15T14:14:25.767Z,42.05
2023-02-15T14:15:47.035Z,42.52
2023-02-15T14:17:05.791Z,42.47
2023-02-15T14:18:07.934Z,42.65
2023-02-15T14:19:17.814Z,42.34
2023-02-15T14:20:30.186Z,42.38
2023-02-15T14:21:35.685Z,42.97
2023-02-15T14:22:50.832Z,43.89
2023-02-15T14:23:55.531Z,43.26
2023-02-15T14:25:00.811Z,43.19
2023-02-15T14:26:21.047Z,42.81